<?xml version="1.0" encoding="UTF-8" standalone="no" ?>
<gpx xmlns="http://www.topografix.com/GPX/1/1" creator="MapSource 6.11.6" version="1.1" xmlns:xsi="http://www.w3.org/2001/XMLSchema-instance" xsi:schemaLocation="http://www.topografix.com/GPX/1/1 http://www.topografix.com/GPX/1/1/gpx.xsd">

  <metadata>
    <link href="http://www.garmin.com">
      <text>Garmin International</text>
    </link>
    <time>2009-02-19T19:46:10Z</time>
    <bounds maxlat="50.656659" maxlon="6.422150" minlat="50.641591" minlon="6.401200"/>
  </metadata>

  <trk>
    <name>Schmidt-Eschauel RW</name>
    <extensions>
      <gpxx:TrackExtension xmlns:gpxx="http://www.garmin.com/xmlschemas/GpxExtensions/v3" xmlns:xsi="http://www.w3.org/2001/XMLSchema-instance" xsi:schemaLocation="http://www.garmin.com/xmlschemas/GpxExtensions/v3 http://www.garmin.com/xmlschemas/GpxExtensions/v3/GpxExtensionsv3.xsd">
        <gpxx:DisplayColor>White</gpxx:DisplayColor>
      </gpxx:TrackExtension>
    </extensions>
    <trkseg>
      <trkpt lat="50.655653" lon="6.413226">
        <ele>396.681000</ele>
        <time>2009-02-19T20:45:02Z</time>
      </trkpt>
      <trkpt lat="50.655587" lon="6.413353">
        <ele>396.681000</ele>
        <time>2009-02-19T20:45:12Z</time>
      </trkpt>
      <trkpt lat="50.655389" lon="6.414160">
        <ele>394.759000</ele>
        <time>2009-02-19T20:46:10Z</time>
      </trkpt>
      <trkpt lat="50.655132" lon="6.415044">
        <ele>393.317000</ele>
        <time>2009-02-19T20:47:15Z</time>
      </trkpt>
      <trkpt lat="50.654827" lon="6.416199">
        <ele>391.394000</ele>
        <time>2009-02-19T20:48:38Z</time>
      </trkpt>
      <trkpt lat="50.654825" lon="6.416357">
        <ele>391.875000</ele>
        <time>2009-02-19T20:48:48Z</time>
      </trkpt>
      <trkpt lat="50.654817" lon="6.417198">
        <ele>389.471000</ele>
        <time>2009-02-19T20:49:44Z</time>
      </trkpt>
      <trkpt lat="50.654790" lon="6.417528">
        <ele>389.471000</ele>
        <time>2009-02-19T20:50:06Z</time>
      </trkpt>
      <trkpt lat="50.654757" lon="6.418320">
        <ele>388.029000</ele>
        <time>2009-02-19T20:50:59Z</time>
      </trkpt>
      <trkpt lat="50.654686" lon="6.419764">
        <ele>386.587000</ele>
        <time>2009-02-19T20:52:36Z</time>
      </trkpt>
      <trkpt lat="50.654651" lon="6.420056">
        <ele>386.107000</ele>
        <time>2009-02-19T20:52:55Z</time>
      </trkpt>
      <trkpt lat="50.654582" lon="6.420367">
        <ele>385.626000</ele>
        <time>2009-02-19T20:53:17Z</time>
      </trkpt>
      <trkpt lat="50.654481" lon="6.420439">
        <ele>385.145000</ele>
        <time>2009-02-19T20:53:29Z</time>
      </trkpt>
      <trkpt lat="50.654244" lon="6.420466">
        <ele>384.665000</ele>
        <time>2009-02-19T20:53:54Z</time>
      </trkpt>
      <trkpt lat="50.653923" lon="6.420691">
        <ele>383.703000</ele>
        <time>2009-02-19T20:54:31Z</time>
      </trkpt>
      <trkpt lat="50.653624" lon="6.421167">
        <ele>384.184000</ele>
        <time>2009-02-19T20:55:15Z</time>
      </trkpt>
      <trkpt lat="50.653457" lon="6.421483">
        <ele>383.703000</ele>
        <time>2009-02-19T20:55:43Z</time>
      </trkpt>
      <trkpt lat="50.653290" lon="6.421983">
        <ele>382.742000</ele>
        <time>2009-02-19T20:56:20Z</time>
      </trkpt>
      <trkpt lat="50.653259" lon="6.422150">
        <ele>382.261000</ele>
        <time>2009-02-19T20:56:32Z</time>
      </trkpt>
      <trkpt lat="50.652865" lon="6.422095">
        <ele>376.013000</ele>
        <time>2009-02-19T20:57:13Z</time>
      </trkpt>
      <trkpt lat="50.652933" lon="6.421966">
        <ele>375.052000</ele>
        <time>2009-02-19T20:57:24Z</time>
      </trkpt>
      <trkpt lat="50.652989" lon="6.421775">
        <ele>374.571000</ele>
        <time>2009-02-19T20:57:38Z</time>
      </trkpt>
      <trkpt lat="50.652999" lon="6.421588">
        <ele>373.129000</ele>
        <time>2009-02-19T20:57:51Z</time>
      </trkpt>
      <trkpt lat="50.653012" lon="6.421400">
        <ele>372.648000</ele>
        <time>2009-02-19T20:58:03Z</time>
      </trkpt>
      <trkpt lat="50.653022" lon="6.421216">
        <ele>372.648000</ele>
        <time>2009-02-19T20:58:16Z</time>
      </trkpt>
      <trkpt lat="50.653033" lon="6.421014">
        <ele>373.129000</ele>
        <time>2009-02-19T20:58:29Z</time>
      </trkpt>
      <trkpt lat="50.653078" lon="6.420141">
        <ele>371.687000</ele>
        <time>2009-02-19T20:59:28Z</time>
      </trkpt>
      <trkpt lat="50.653074" lon="6.419965">
        <ele>370.245000</ele>
        <time>2009-02-19T20:59:39Z</time>
      </trkpt>
      <trkpt lat="50.653134" lon="6.419762">
        <ele>368.803000</ele>
        <time>2009-02-19T20:59:54Z</time>
      </trkpt>
      <trkpt lat="50.652527" lon="6.418006">
        <ele>303.433000</ele>
        <time>2009-02-19T21:02:07Z</time>
      </trkpt>
      <trkpt lat="50.652523" lon="6.417874">
        <ele>301.511000</ele>
        <time>2009-02-19T21:02:16Z</time>
      </trkpt>
      <trkpt lat="50.652544" lon="6.417737">
        <ele>299.588000</ele>
        <time>2009-02-19T21:02:25Z</time>
      </trkpt>
      <trkpt lat="50.652555" lon="6.417545">
        <ele>297.185000</ele>
        <time>2009-02-19T21:02:38Z</time>
      </trkpt>
      <trkpt lat="50.652464" lon="6.417384">
        <ele>294.781000</ele>
        <time>2009-02-19T21:02:53Z</time>
      </trkpt>
      <trkpt lat="50.652361" lon="6.417382">
        <ele>292.378000</ele>
        <time>2009-02-19T21:03:03Z</time>
      </trkpt>
      <trkpt lat="50.652319" lon="6.417429">
        <ele>289.494000</ele>
        <time>2009-02-19T21:03:09Z</time>
      </trkpt>
      <trkpt lat="50.652312" lon="6.417505">
        <ele>289.014000</ele>
        <time>2009-02-19T21:03:14Z</time>
      </trkpt>
      <trkpt lat="50.652140" lon="6.417578">
        <ele>287.571000</ele>
        <time>2009-02-19T21:03:33Z</time>
      </trkpt>
      <trkpt lat="50.652044" lon="6.417717">
        <ele>285.649000</ele>
        <time>2009-02-19T21:03:46Z</time>
      </trkpt>
      <trkpt lat="50.652023" lon="6.417839">
        <ele>283.726000</ele>
        <time>2009-02-19T21:03:55Z</time>
      </trkpt>
      <trkpt lat="50.652077" lon="6.418070">
        <ele>281.804000</ele>
        <time>2009-02-19T21:04:11Z</time>
      </trkpt>
      <trkpt lat="50.651526" lon="6.418060">
        <ele>271.710000</ele>
        <time>2009-02-19T21:05:09Z</time>
      </trkpt>
      <trkpt lat="50.651475" lon="6.417921">
        <ele>273.152000</ele>
        <time>2009-02-19T21:05:19Z</time>
      </trkpt>
      <trkpt lat="50.651384" lon="6.417772">
        <ele>273.632000</ele>
        <time>2009-02-19T21:05:33Z</time>
      </trkpt>
      <trkpt lat="50.651271" lon="6.417655">
        <ele>273.632000</ele>
        <time>2009-02-19T21:05:47Z</time>
      </trkpt>
      <trkpt lat="50.651184" lon="6.417630">
        <ele>273.632000</ele>
        <time>2009-02-19T21:05:57Z</time>
      </trkpt>
      <trkpt lat="50.651104" lon="6.417636">
        <ele>274.113000</ele>
        <time>2009-02-19T21:06:05Z</time>
      </trkpt>
      <trkpt lat="50.650952" lon="6.417652">
        <ele>274.594000</ele>
        <time>2009-02-19T21:06:21Z</time>
      </trkpt>
      <trkpt lat="50.650839" lon="6.417675">
        <ele>274.594000</ele>
        <time>2009-02-19T21:06:33Z</time>
      </trkpt>
      <trkpt lat="50.650721" lon="6.417716">
        <ele>274.113000</ele>
        <time>2009-02-19T21:06:46Z</time>
      </trkpt>
      <trkpt lat="50.650616" lon="6.417768">
        <ele>273.632000</ele>
        <time>2009-02-19T21:06:57Z</time>
      </trkpt>
      <trkpt lat="50.650461" lon="6.417817">
        <ele>273.632000</ele>
        <time>2009-02-19T21:07:14Z</time>
      </trkpt>
      <trkpt lat="50.650343" lon="6.417848">
        <ele>273.632000</ele>
        <time>2009-02-19T21:07:26Z</time>
      </trkpt>
      <trkpt lat="50.650227" lon="6.417851">
        <ele>273.632000</ele>
        <time>2009-02-19T21:07:39Z</time>
      </trkpt>
      <trkpt lat="50.650034" lon="6.417692">
        <ele>272.671000</ele>
        <time>2009-02-19T21:08:01Z</time>
      </trkpt>
      <trkpt lat="50.649906" lon="6.417531">
        <ele>272.671000</ele>
        <time>2009-02-19T21:08:19Z</time>
      </trkpt>
      <trkpt lat="50.649835" lon="6.417393">
        <ele>272.671000</ele>
        <time>2009-02-19T21:08:30Z</time>
      </trkpt>
      <trkpt lat="50.649754" lon="6.417278">
        <ele>272.190000</ele>
        <time>2009-02-19T21:08:42Z</time>
      </trkpt>
      <trkpt lat="50.649688" lon="6.417181">
        <ele>271.710000</ele>
        <time>2009-02-19T21:08:51Z</time>
      </trkpt>
      <trkpt lat="50.649646" lon="6.417032">
        <ele>271.229000</ele>
        <time>2009-02-19T21:09:02Z</time>
      </trkpt>
      <trkpt lat="50.649556" lon="6.416862">
        <ele>269.307000</ele>
        <time>2009-02-19T21:09:17Z</time>
      </trkpt>
      <trkpt lat="50.649405" lon="6.416741">
        <ele>270.268000</ele>
        <time>2009-02-19T21:09:35Z</time>
      </trkpt>
      <trkpt lat="50.649383" lon="6.416555">
        <ele>269.787000</ele>
        <time>2009-02-19T21:09:47Z</time>
      </trkpt>
      <trkpt lat="50.649329" lon="6.416405">
        <ele>269.787000</ele>
        <time>2009-02-19T21:09:59Z</time>
      </trkpt>
      <trkpt lat="50.648949" lon="6.416034">
        <ele>266.903000</ele>
        <time>2009-02-19T21:10:46Z</time>
      </trkpt>
      <trkpt lat="50.648839" lon="6.415965">
        <ele>266.422000</ele>
        <time>2009-02-19T21:10:58Z</time>
      </trkpt>
      <trkpt lat="50.648755" lon="6.415860">
        <ele>265.942000</ele>
        <time>2009-02-19T21:11:09Z</time>
      </trkpt>
      <trkpt lat="50.648683" lon="6.415722">
        <ele>265.461000</ele>
        <time>2009-02-19T21:11:21Z</time>
      </trkpt>
      <trkpt lat="50.648549" lon="6.415543">
        <ele>264.981000</ele>
        <time>2009-02-19T21:11:40Z</time>
      </trkpt>
      <trkpt lat="50.648453" lon="6.415453">
        <ele>264.500000</ele>
        <time>2009-02-19T21:11:51Z</time>
      </trkpt>
      <trkpt lat="50.648273" lon="6.415321">
        <ele>264.500000</ele>
        <time>2009-02-19T21:12:12Z</time>
      </trkpt>
      <trkpt lat="50.648096" lon="6.415099">
        <ele>263.539000</ele>
        <time>2009-02-19T21:12:36Z</time>
      </trkpt>
      <trkpt lat="50.648015" lon="6.414990">
        <ele>262.577000</ele>
        <time>2009-02-19T21:12:47Z</time>
      </trkpt>
      <trkpt lat="50.647924" lon="6.414954">
        <ele>262.097000</ele>
        <time>2009-02-19T21:12:57Z</time>
      </trkpt>
      <trkpt lat="50.647717" lon="6.414915">
        <ele>261.135000</ele>
        <time>2009-02-19T21:13:19Z</time>
      </trkpt>
      <trkpt lat="50.647625" lon="6.414716">
        <ele>261.135000</ele>
        <time>2009-02-19T21:13:35Z</time>
      </trkpt>
      <trkpt lat="50.647439" lon="6.414421">
        <ele>262.577000</ele>
        <time>2009-02-19T21:14:03Z</time>
      </trkpt>
      <trkpt lat="50.647079" lon="6.413828">
        <ele>267.865000</ele>
        <time>2009-02-19T21:14:57Z</time>
      </trkpt>
      <trkpt lat="50.646983" lon="6.413687">
        <ele>269.787000</ele>
        <time>2009-02-19T21:15:11Z</time>
      </trkpt>
      <trkpt lat="50.646566" lon="6.413185">
        <ele>275.074000</ele>
        <time>2009-02-19T21:16:06Z</time>
      </trkpt>
      <trkpt lat="50.646436" lon="6.413206">
        <ele>274.594000</ele>
        <time>2009-02-19T21:16:20Z</time>
      </trkpt>
      <trkpt lat="50.646338" lon="6.413268">
        <ele>274.113000</ele>
        <time>2009-02-19T21:16:31Z</time>
      </trkpt>
      <trkpt lat="50.646240" lon="6.413353">
        <ele>273.152000</ele>
        <time>2009-02-19T21:16:43Z</time>
      </trkpt>
      <trkpt lat="50.646145" lon="6.413441">
        <ele>272.190000</ele>
        <time>2009-02-19T21:16:54Z</time>
      </trkpt>
      <trkpt lat="50.645888" lon="6.413592">
        <ele>269.307000</ele>
        <time>2009-02-19T21:17:23Z</time>
      </trkpt>
      <trkpt lat="50.645499" lon="6.413839">
        <ele>265.942000</ele>
        <time>2009-02-19T21:18:07Z</time>
      </trkpt>
      <trkpt lat="50.645241" lon="6.414066">
        <ele>264.019000</ele>
        <time>2009-02-19T21:18:38Z</time>
      </trkpt>
      <trkpt lat="50.644816" lon="6.414284">
        <ele>261.616000</ele>
        <time>2009-02-19T21:19:25Z</time>
      </trkpt>
      <trkpt lat="50.644308" lon="6.414610">
        <ele>258.732000</ele>
        <time>2009-02-19T21:20:22Z</time>
      </trkpt>
      <trkpt lat="50.644025" lon="6.414779">
        <ele>257.290000</ele>
        <time>2009-02-19T21:20:54Z</time>
      </trkpt>
      <trkpt lat="50.642110" lon="6.416044">
        <ele>245.754000</ele>
        <time>2009-02-19T21:24:32Z</time>
      </trkpt>
      <trkpt lat="50.641591" lon="6.416416">
        <ele>245.273000</ele>
        <time>2009-02-19T21:25:32Z</time>
      </trkpt>
      <trkpt lat="50.643907" lon="6.414943">
        <ele>257.290000</ele>
        <time>2009-02-19T21:29:54Z</time>
      </trkpt>
      <trkpt lat="50.645523" lon="6.413834">
        <ele>267.384000</ele>
        <time>2009-02-19T21:32:59Z</time>
      </trkpt>
      <trkpt lat="50.645901" lon="6.413612">
        <ele>271.229000</ele>
        <time>2009-02-19T21:33:41Z</time>
      </trkpt>
      <trkpt lat="50.646138" lon="6.413470">
        <ele>273.152000</ele>
        <time>2009-02-19T21:34:08Z</time>
      </trkpt>
      <trkpt lat="50.646453" lon="6.413031">
        <ele>275.555000</ele>
        <time>2009-02-19T21:34:52Z</time>
      </trkpt>
      <trkpt lat="50.646443" lon="6.412857">
        <ele>274.594000</ele>
        <time>2009-02-19T21:35:03Z</time>
      </trkpt>
      <trkpt lat="50.646591" lon="6.412714">
        <ele>271.710000</ele>
        <time>2009-02-19T21:35:22Z</time>
      </trkpt>
      <trkpt lat="50.646665" lon="6.412615">
        <ele>270.748000</ele>
        <time>2009-02-19T21:35:32Z</time>
      </trkpt>
      <trkpt lat="50.646826" lon="6.412278">
        <ele>268.345000</ele>
        <time>2009-02-19T21:36:00Z</time>
      </trkpt>
      <trkpt lat="50.647145" lon="6.411309">
        <ele>264.500000</ele>
        <time>2009-02-19T21:37:12Z</time>
      </trkpt>
      <trkpt lat="50.647228" lon="6.411110">
        <ele>263.539000</ele>
        <time>2009-02-19T21:37:28Z</time>
      </trkpt>
      <trkpt lat="50.647419" lon="6.410247">
        <ele>260.174000</ele>
        <time>2009-02-19T21:38:29Z</time>
      </trkpt>
      <trkpt lat="50.647419" lon="6.410247">
        <ele>260.174000</ele>
        <time>2009-02-19T21:38:29Z</time>
      </trkpt>
      <trkpt lat="50.647556" lon="6.409295">
        <ele>0.000000</ele>
        <time>2009-02-19T21:39:34Z</time>
      </trkpt>
      <trkpt lat="50.647314" lon="6.409025">
        <ele>0.000000</ele>
        <time>2009-02-19T21:40:05Z</time>
      </trkpt>
      <trkpt lat="50.647969" lon="6.407354">
        <ele>0.000000</ele>
        <time>2009-02-19T21:42:16Z</time>
      </trkpt>
      <trkpt lat="50.648005" lon="6.407283">
        <ele>0.000000</ele>
        <time>2009-02-19T21:42:22Z</time>
      </trkpt>
      <trkpt lat="50.648041" lon="6.407226">
        <ele>0.000000</ele>
        <time>2009-02-19T21:42:27Z</time>
      </trkpt>
      <trkpt lat="50.648823" lon="6.405781">
        <ele>0.000000</ele>
        <time>2009-02-19T21:44:34Z</time>
      </trkpt>
      <trkpt lat="50.649559" lon="6.404889">
        <ele>0.000000</ele>
        <time>2009-02-19T21:46:11Z</time>
      </trkpt>
      <trkpt lat="50.650736" lon="6.404563">
        <ele>0.000000</ele>
        <time>2009-02-19T21:48:16Z</time>
      </trkpt>
      <trkpt lat="50.651415" lon="6.404189">
        <ele>321.698000</ele>
        <time>2009-02-19T21:49:32Z</time>
      </trkpt>
      <trkpt lat="50.651504" lon="6.404128">
        <ele>322.660000</ele>
        <time>2009-02-19T21:49:42Z</time>
      </trkpt>
      <trkpt lat="50.652027" lon="6.403915">
        <ele>326.505000</ele>
        <time>2009-02-19T21:50:39Z</time>
      </trkpt>
      <trkpt lat="50.652501" lon="6.402199">
        <ele>340.925000</ele>
        <time>2009-02-19T21:52:43Z</time>
      </trkpt>
      <trkpt lat="50.652407" lon="6.402130">
        <ele>341.886000</ele>
        <time>2009-02-19T21:52:54Z</time>
      </trkpt>
      <trkpt lat="50.652262" lon="6.401721">
        <ele>343.328000</ele>
        <time>2009-02-19T21:53:25Z</time>
      </trkpt>
      <trkpt lat="50.652315" lon="6.401637">
        <ele>343.809000</ele>
        <time>2009-02-19T21:53:33Z</time>
      </trkpt>
      <trkpt lat="50.652377" lon="6.401600">
        <ele>345.251000</ele>
        <time>2009-02-19T21:53:40Z</time>
      </trkpt>
      <trkpt lat="50.652427" lon="6.401632">
        <ele>346.212000</ele>
        <time>2009-02-19T21:53:46Z</time>
      </trkpt>
      <trkpt lat="50.652518" lon="6.401722">
        <ele>347.173000</ele>
        <time>2009-02-19T21:53:57Z</time>
      </trkpt>
      <trkpt lat="50.653333" lon="6.401257">
        <ele>0.000000</ele>
        <time>2009-02-19T21:55:28Z</time>
      </trkpt>
      <trkpt lat="50.653315" lon="6.401271">
        <ele>0.000000</ele>
        <time>2009-02-19T21:55:30Z</time>
      </trkpt>
      <trkpt lat="50.653952" lon="6.401200">
        <ele>0.000000</ele>
        <time>2009-02-19T21:56:37Z</time>
      </trkpt>
      <trkpt lat="50.654689" lon="6.401668">
        <ele>0.000000</ele>
        <time>2009-02-19T21:58:00Z</time>
      </trkpt>
      <trkpt lat="50.655102" lon="6.401668">
        <ele>0.000000</ele>
        <time>2009-02-19T21:58:44Z</time>
      </trkpt>
      <trkpt lat="50.655090" lon="6.401667">
        <ele>375.532000</ele>
        <time>2009-02-19T21:58:45Z</time>
      </trkpt>
      <trkpt lat="50.655090" lon="6.401667">
        <ele>375.532000</ele>
        <time>2009-02-19T21:58:45Z</time>
      </trkpt>
      <trkpt lat="50.655590" lon="6.401612">
        <ele>380.819000</ele>
        <time>2009-02-19T21:59:38Z</time>
      </trkpt>
      <trkpt lat="50.655700" lon="6.401713">
        <ele>381.300000</ele>
        <time>2009-02-19T21:59:51Z</time>
      </trkpt>
      <trkpt lat="50.655812" lon="6.401838">
        <ele>382.261000</ele>
        <time>2009-02-19T22:00:05Z</time>
      </trkpt>
      <trkpt lat="50.655926" lon="6.402017">
        <ele>384.665000</ele>
        <time>2009-02-19T22:00:22Z</time>
      </trkpt>
      <trkpt lat="50.656002" lon="6.402179">
        <ele>385.626000</ele>
        <time>2009-02-19T22:00:36Z</time>
      </trkpt>
      <trkpt lat="50.655953" lon="6.402583">
        <ele>386.587000</ele>
        <time>2009-02-19T22:01:03Z</time>
      </trkpt>
      <trkpt lat="50.655822" lon="6.402857">
        <ele>388.510000</ele>
        <time>2009-02-19T22:01:26Z</time>
      </trkpt>
      <trkpt lat="50.655776" lon="6.402923">
        <ele>388.991000</ele>
        <time>2009-02-19T22:01:32Z</time>
      </trkpt>
      <trkpt lat="50.655870" lon="6.403192">
        <ele>390.433000</ele>
        <time>2009-02-19T22:01:53Z</time>
      </trkpt>
      <trkpt lat="50.656178" lon="6.404036">
        <ele>395.720000</ele>
        <time>2009-02-19T22:02:58Z</time>
      </trkpt>
      <trkpt lat="50.656199" lon="6.404227">
        <ele>397.642000</ele>
        <time>2009-02-19T22:03:11Z</time>
      </trkpt>
      <trkpt lat="50.656267" lon="6.404497">
        <ele>399.565000</ele>
        <time>2009-02-19T22:03:30Z</time>
      </trkpt>
      <trkpt lat="50.656395" lon="6.405533">
        <ele>406.775000</ele>
        <time>2009-02-19T22:04:40Z</time>
      </trkpt>
      <trkpt lat="50.656332" lon="6.405866">
        <ele>409.178000</ele>
        <time>2009-02-19T22:05:03Z</time>
      </trkpt>
      <trkpt lat="50.656122" lon="6.406421">
        <ele>413.504000</ele>
        <time>2009-02-19T22:05:46Z</time>
      </trkpt>
      <trkpt lat="50.655943" lon="6.406890">
        <ele>415.907000</ele>
        <time>2009-02-19T22:06:23Z</time>
      </trkpt>
      <trkpt lat="50.655919" lon="6.407002">
        <ele>415.907000</ele>
        <time>2009-02-19T22:06:30Z</time>
      </trkpt>
      <trkpt lat="50.655918" lon="6.407193">
        <ele>415.907000</ele>
        <time>2009-02-19T22:06:43Z</time>
      </trkpt>
      <trkpt lat="50.655911" lon="6.407328">
        <ele>416.388000</ele>
        <time>2009-02-19T22:06:52Z</time>
      </trkpt>
      <trkpt lat="50.655836" lon="6.408255">
        <ele>414.946000</ele>
        <time>2009-02-19T22:07:54Z</time>
      </trkpt>
      <trkpt lat="50.655796" lon="6.408866">
        <ele>413.024000</ele>
        <time>2009-02-19T22:08:35Z</time>
      </trkpt>
      <trkpt lat="50.655802" lon="6.409313">
        <ele>409.659000</ele>
        <time>2009-02-19T22:09:05Z</time>
      </trkpt>
      <trkpt lat="50.655860" lon="6.410402">
        <ele>402.449000</ele>
        <time>2009-02-19T22:10:18Z</time>
      </trkpt>
      <trkpt lat="50.655852" lon="6.410750">
        <ele>400.526000</ele>
        <time>2009-02-19T22:10:41Z</time>
      </trkpt>
      <trkpt lat="50.655841" lon="6.410924">
        <ele>400.046000</ele>
        <time>2009-02-19T22:10:52Z</time>
      </trkpt>
      <trkpt lat="50.655896" lon="6.411394">
        <ele>397.642000</ele>
        <time>2009-02-19T22:11:24Z</time>
      </trkpt>
      <trkpt lat="50.655887" lon="6.411558">
        <ele>397.642000</ele>
        <time>2009-02-19T22:11:35Z</time>
      </trkpt>
      <trkpt lat="50.655858" lon="6.411724">
        <ele>397.162000</ele>
        <time>2009-02-19T22:11:47Z</time>
      </trkpt>
      <trkpt lat="50.655826" lon="6.411875">
        <ele>396.681000</ele>
        <time>2009-02-19T22:11:57Z</time>
      </trkpt>
      <trkpt lat="50.655827" lon="6.412028">
        <ele>395.720000</ele>
        <time>2009-02-19T22:12:07Z</time>
      </trkpt>
      <trkpt lat="50.655736" lon="6.413156">
        <ele>398.123000</ele>
        <time>2009-02-19T22:13:23Z</time>
      </trkpt>
      <trkpt lat="50.655771" lon="6.413118">
        <ele>397.642000</ele>
        <time>2009-02-19T22:13:27Z</time>
      </trkpt>
      <trkpt lat="50.655849" lon="6.413103">
        <ele>398.123000</ele>
        <time>2009-02-19T22:13:36Z</time>
      </trkpt>
      <trkpt lat="50.655956" lon="6.413145">
        <ele>398.604000</ele>
        <time>2009-02-19T22:13:47Z</time>
      </trkpt>
      <trkpt lat="50.656065" lon="6.413193">
        <ele>399.084000</ele>
        <time>2009-02-19T22:13:59Z</time>
      </trkpt>
      <trkpt lat="50.656193" lon="6.413221">
        <ele>399.565000</ele>
        <time>2009-02-19T22:14:13Z</time>
      </trkpt>
      <trkpt lat="50.656659" lon="6.413436">
        <ele>398.123000</ele>
        <time>2009-02-19T22:15:04Z</time>
      </trkpt>
    </trkseg>
  </trk>

</gpx>
